Time;durP1;ratioP1;P1;durP2;ratioP2;P2;SDS_P1;SDS_P2;PMS_P1;PMS_P2;Temp;Humidity;BMP_temperature;BMP_pressure;BME280_temperature;BME280_humidity;BME280_pressure;Samples;Min_cycle;Max_cycle;Signal;HPM_P1;HPM_P2
2022/07/25 00:00:29;;;;;;;14.35;7.32;;;;;;;21.32;91.05;101170.66;7375619;19;20036;-79
2022/07/25 00:02:59;;;;;;;14.60;8.02;;;;;;;21.28;92.91;101162.75;7373919;19;20015;-80
2022/07/25 00:05:32;;;;;;;15.25;8.80;;;;;;;21.23;94.44;101154.00;7375665;19;20078;-80
2022/07/25 00:08:07;;;;;;;15.88;9.05;;;;;;;21.17;94.85;101155.88;7372585;19;20007;-80
2022/07/25 00:10:40;;;;;;;15.18;8.65;;;;;;;21.15;94.61;101146.16;7368783;19;20022;-77
2022/07/25 00:13:10;;;;;;;13.25;7.78;;;;;;;21.10;93.46;101145.41;7370361;19;20157;-77
2022/07/25 00:15:41;;;;;;;11.50;7.88;;;;;;;21.04;94.98;101143.75;7374645;19;20018;-76
2022/07/25 00:18:12;;;;;;;14.68;7.95;;;;;;;21.01;94.12;101133.19;7370977;19;20462;-77
2022/07/25 00:20:42;;;;;;;14.40;8.10;;;;;;;20.99;95.17;101134.13;7371893;19;20415;-76
2022/07/25 00:23:12;;;;;;;12.50;8.00;;;;;;;20.97;96.34;101133.28;7371118;19;20521;-76
2022/07/25 00:25:45;;;;;;;11.95;8.20;;;;;;;20.95;96.60;101124.44;7374367;19;20027;-76
2022/07/25 00:28:15;;;;;;;13.77;8.00;;;;;;;20.92;96.00;101128.06;7371641;19;20335;-77
2022/07/25 00:30:45;;;;;;;15.73;8.68;;;;;;;20.91;97.44;101123.66;7378440;19;20018;-78
2022/07/25 00:33:21;;;;;;;12.90;8.05;;;;;;;20.87;98.63;101130.84;7378673;19;20010;-75
2022/07/25 00:35:51;;;;;;;16.95;9.50;;;;;;;20.87;97.61;101124.63;7377666;19;20106;-75
2022/07/25 00:38:21;;;;;;;14.77;8.85;;;;;;;20.80;98.23;101117.75;7376209;19;20015;-75
2022/07/25 00:40:54;;;;;;;15.10;8.70;;;;;;;20.79;97.91;101118.66;7370743;19;20014;-76
2022/07/25 00:43:24;;;;;;;;;;;;;;;20.79;99.24;101113.31;7368534;19;20685;-75
2022/07/25 00:45:54;;;;;;;14.82;8.05;;;;;;;20.80;100.00;101107.06;7371963;19;19925;-76
2022/07/25 00:48:24;;;;;;;15.45;7.63;;;;;;;20.78;100.00;101103.56;7371041;19;20545;-76
2022/07/25 00:50:54;;;;;;;13.45;7.57;;;;;;;20.75;98.45;101091.19;7373665;19;20021;-76
2022/07/25 00:53:24;;;;;;;13.82;8.15;;;;;;;20.72;98.48;101099.28;7367161;19;20007;-76
2022/07/25 00:55:57;;;;;;;13.23;7.70;;;;;;;20.72;99.92;101098.41;7374666;19;20375;-77
2022/07/25 00:58:27;;;;;;;15.35;7.70;;;;;;;20.71;100.00;101084.19;7369713;19;20135;-75
2022/07/25 01:00:57;;;;;;;18.05;8.48;;;;;;;20.71;99.59;101084.19;7370806;19;20014;-75
2022/07/25 01:03:27;;;;;;;12.48;7.40;;;;;;;20.71;99.71;101075.31;7373755;19;20007;-76
2022/07/25 01:05:57;;;;;;;14.10;7.70;;;;;;;20.70;99.52;101074.44;7372995;19;20018;-76
2022/07/25 01:08:28;;;;;;;13.05;7.75;;;;;;;20.72;100.00;101077.06;7377976;19;20499;-76
2022/07/25 01:11:01;;;;;;;13.25;8.60;;;;;;;20.72;100.00;101077.94;7379282;19;20014;-75
2022/07/25 01:13:34;;;;;;;13.60;7.75;;;;;;;20.71;100.00;101081.53;7380867;19;20015;-76
2022/07/25 01:16:04;;;;;;;13.38;7.78;;;;;;;20.69;100.00;101074.47;7381224;19;20011;-79
2022/07/25 01:18:35;;;;;;;14.00;8.48;;;;;;;20.66;99.28;101071.88;7380304;19;20013;-78
2022/07/25 01:21:08;;;;;;;15.07;8.35;;;;;;;20.66;100.00;101071.88;7380260;19;20034;-76
2022/07/25 01:23:39;;;;;;;14.70;7.95;;;;;;;20.65;100.00;101070.13;7376178;19;20021;-78
2022/07/25 01:26:11;;;;;;;13.18;8.20;;;;;;;20.63;100.00;101056.84;7373205;19;20368;-77
2022/07/25 01:28:41;;;;;;;18.10;8.77;;;;;;;20.63;100.00;101062.19;7374628;19;20014;-76
2022/07/25 01:31:11;;;;;;;14.60;8.43;;;;;;;20.63;100.00;101063.97;7380007;19;20013;-76
2022/07/25 01:33:41;;;;;;;15.50;8.48;;;;;;;20.58;100.00;101048.09;7373806;19;20022;-76
2022/07/25 01:36:15;;;;;;;12.15;7.72;;;;;;;20.55;100.00;101043.72;7379657;19;20015;-76
2022/07/25 01:38:45;;;;;;;13.75;8.00;;;;;;;20.53;100.00;101042.00;7378412;19;20744;-76
2022/07/25 01:41:15;;;;;;;14.85;8.10;;;;;;;20.51;100.00;101041.16;7378505;19;20013;-80
2022/07/25 01:43:54;;;;;;;16.80;8.77;;;;;;;20.51;100.00;101036.72;7389000;19;20036;-80
2022/07/25 01:46:24;;;;;;;14.70;8.32;;;;;;;20.50;100.00;101029.63;7384706;19;20018;-80
2022/07/25 01:48:54;;;;;;;13.70;8.60;;;;;;;20.46;100.00;101027.09;7382808;19;20014;-80
2022/07/25 01:51:27;;;;;;;13.10;8.95;;;;;;;20.45;100.00;101028.00;7379411;19;20455;-79
2022/07/25 01:53:57;;;;;;;12.90;8.43;;;;;;;20.43;100.00;101027.16;7368204;19;20145;-80
2022/07/25 01:56:28;;;;;;;14.10;7.70;;;;;;;20.41;100.00;101019.19;7372389;19;20014;-80
2022/07/25 01:59:01;;;;;;;13.45;7.60;;;;;;;20.41;100.00;101016.53;7374055;19;20031;-79
2022/07/25 02:01:31;;;;;;;13.70;8.10;;;;;;;20.41;99.72;101008.53;7373168;19;20018;-80
2022/07/25 02:04:01;;;;;;;16.02;8.45;;;;;;;20.39;99.92;101005.03;7373619;19;20036;-82
2022/07/25 02:06:35;;;;;;;15.00;8.13;;;;;;;20.39;100.00;101007.72;7374790;19;20027;-80
2022/07/25 02:09:06;;;;;;;15.50;8.40;;;;;;;20.39;100.00;101010.38;7363115;19;20032;-80
2022/07/25 02:11:37;;;;;;;13.00;7.70;;;;;;;20.38;100.00;101008.63;7371986;19;20093;-79
2022/07/25 02:14:07;;;;;;;14.43;8.20;;;;;;;20.36;100.00;100997.09;7373785;19;22410;-80
2022/07/25 02:16:37;;;;;;;13.70;8.30;;;;;;;20.36;100.00;101007.75;7370580;19;20006;-80
2022/07/25 02:19:08;;;;;;;14.30;7.68;;;;;;;20.34;100.00;100998.03;7372021;19;20082;-80
2022/07/25 02:21:40;;;;;;;13.60;7.32;;;;;;;20.35;100.00;100987.34;7373049;19;20002;-81
2022/07/25 02:24:11;;;;;;;12.80;7.63;;;;;;;20.36;100.00;100993.56;7369913;19;20014;-80
2022/07/25 02:26:41;;;;;;;14.77;8.38;;;;;;;20.36;100.00;100980.22;7368937;19;20026;-80
2022/07/25 02:29:14;;;;;;;15.25;8.10;;;;;;;20.34;100.00;100985.59;7375539;19;20070;-79
2022/07/25 02:31:44;;;;;;;13.73;8.43;;;;;;;20.33;100.00;100982.97;7374555;19;20018;-79
2022/07/25 02:34:14;;;;;;;13.00;8.05;;;;;;;20.33;100.00;100982.97;7373043;19;20022;-81
2022/07/25 02:36:47;;;;;;;13.57;7.30;;;;;;;20.35;100.00;100982.03;7373693;19;20018;-80
2022/07/25 02:39:17;;;;;;;12.93;7.27;;;;;;;20.33;100.00;100977.66;7372526;19;20003;-79
2022/07/25 02:41:47;;;;;;;13.02;7.78;;;;;;;20.32;100.00;100966.13;7371566;19;20014;-80
2022/07/25 02:44:17;;;;;;;13.38;8.02;;;;;;;20.32;100.00;100963.44;7373434;19;20455;-79
2022/07/25 02:46:47;;;;;;;13.27;7.88;;;;;;;20.32;100.00;100968.78;7371362;19;20040;-79
2022/07/25 02:49:17;;;;;;;18.38;8.50;;;;;;;20.30;100.00;100959.94;7373537;19;20487;-80
2022/07/25 02:51:50;;;;;;;13.10;7.93;;;;;;;20.30;100.00;100967.06;7371302;19;20670;-80
2022/07/25 02:54:21;;;;;;;17.02;9.68;;;;;;;20.30;100.00;100972.41;7366837;19;20040;-80
2022/07/25 02:56:51;;;;;;;17.25;9.85;;;;;;;20.31;100.00;100966.16;7372197;19;20035;-80
2022/07/25 02:59:21;;;;;;;17.50;10.85;;;;;;;20.29;100.00;100981.28;7369721;19;20011;-81
2022/07/25 03:01:51;;;;;;;17.77;10.65;;;;;;;20.28;100.00;100972.44;7370215;19;20495;-80
2022/07/25 03:04:24;;;;;;;34.00;18.80;;;;;;;20.21;100.00;100973.50;7373472;19;20529;-80
2022/07/25 03:06:56;;;;;;;25.00;14.38;;;;;;;20.18;100.00;100968.25;7372036;19;20508;-79
2022/07/25 03:09:26;;;;;;;30.33;16.60;;;;;;;20.18;100.00;100973.56;7374314;19;20934;-79
2022/07/25 03:11:56;;;;;;;26.35;13.63;;;;;;;20.18;100.00;100979.78;7380397;19;20011;-80
2022/07/25 03:14:26;;;;;;;18.95;11.13;;;;;;;20.18;100.00;100979.78;7376648;19;20023;-80
2022/07/25 03:16:56;;;;;;;18.15;10.85;;;;;;;20.19;100.00;100970.88;7380324;19;20090;-81
2022/07/25 03:19:26;;;;;;;15.15;9.52;;;;;;;20.20;100.00;100972.63;7378012;19;20010;-80
2022/07/25 03:21:59;;;;;;;13.85;8.43;;;;;;;20.20;100.00;100985.06;7378814;19;20093;-80
2022/07/25 03:24:29;;;;;;;19.33;9.63;;;;;;;20.22;100.00;100977.91;7377196;19;20051;-79
2022/07/25 03:26:59;;;;;;;17.15;9.82;;;;;;;20.24;100.00;100976.09;7379020;19;20018;-79
2022/07/25 03:29:29;;;;;;;14.52;9.30;;;;;;;20.26;100.00;100974.25;7377991;19;20007;-80
2022/07/25 03:31:59;;;;;;;19.75;9.35;;;;;;;20.26;100.00;100966.28;7381831;19;20007;-80
2022/07/25 03:34:29;;;;;;;14.50;9.13;;;;;;;20.25;100.00;100975.16;7384033;19;20318;-81
2022/07/25 03:37:02;;;;;;;15.30;9.65;;;;;;;20.28;100.00;100982.22;7377816;19;20042;-80
2022/07/25 03:39:33;;;;;;;17.30;9.85;;;;;;;20.29;100.00;100982.19;7380453;19;20015;-78
2022/07/25 03:42:02;;;;;;;15.20;9.27;;;;;;;20.32;100.00;100970.56;7375902;19;20017;-81
2022/07/25 03:44:32;;;;;;;18.33;9.73;;;;;;;20.31;100.00;100969.69;7379798;19;20006;-80
2022/07/25 03:47:03;;;;;;;14.88;8.88;;;;;;;20.29;100.00;100966.19;7378812;19;20044;-79
2022/07/25 03:49:33;;;;;;;13.43;7.55;;;;;;;20.28;100.00;100975.09;7378774;19;20344;-80
2022/07/25 03:52:06;;;;;;;16.33;9.02;;;;;;;20.27;100.00;100973.34;7378700;19;20017;-81
2022/07/25 03:54:36;;;;;;;14.95;8.55;;;;;;;20.25;100.00;100962.72;7374236;19;20004;-79
2022/07/25 03:57:07;;;;;;;15.88;8.77;;;;;;;20.23;100.00;100975.22;7376098;19;20010;-80
2022/07/25 03:59:37;;;;;;;13.75;8.55;;;;;;;20.22;100.00;100967.25;7379342;19;20078;-80
2022/07/25 04:02:07;;;;;;;17.00;9.20;;;;;;;20.20;100.00;100971.75;7374849;19;20003;-81
2022/07/25 04:04:37;;;;;;;14.98;8.27;;;;;;;20.19;100.00;100965.53;7378062;19;20010;-81
2022/07/25 04:07:09;;;;;;;12.40;7.80;;;;;;;20.17;100.00;100954.06;7375926;19;20023;-81
2022/07/25 04:09:39;;;;;;;13.38;7.63;;;;;;;20.16;100.00;100954.09;7377363;19;20773;-80
2022/07/25 04:12:11;;;;;;;14.18;8.23;;;;;;;20.16;100.00;100962.06;7377590;19;20021;-80
2022/07/25 04:14:41;;;;;;;13.63;7.40;;;;;;;20.13;100.00;100959.50;7376692;19;20024;-81
2022/07/25 04:17:12;;;;;;;12.23;7.38;;;;;;;20.11;100.00;100964.84;7374424;19;22230;-81
2022/07/25 04:19:43;;;;;;;12.27;7.22;;;;;;;20.13;100.00;100948.84;7376945;19;20059;-81
2022/07/25 04:22:16;;;;;;;14.68;7.05;;;;;;;20.08;100.00;100954.28;7375017;19;20044;-81
2022/07/25 04:24:46;;;;;;;10.32;6.45;;;;;;;20.10;100.00;100949.78;7378319;19;20007;-80
2022/07/25 04:27:16;;;;;;;10.63;6.30;;;;;;;20.09;100.00;100947.16;7375908;19;20284;-80
2022/07/25 04:29:48;;;;;;;12.73;6.60;;;;;;;20.08;100.00;100950.75;7377519;19;20013;-81
2022/07/25 04:32:18;;;;;;;17.77;8.00;;;;;;;20.11;100.00;100953.31;7375954;19;20014;-80
2022/07/25 04:34:54;;;;;;;20.13;9.13;;;;;;;20.18;100.00;100946.94;7378652;19;20021;-81
2022/07/25 04:37:26;;;;;;;13.18;7.55;;;;;;;20.16;100.00;100956.75;7377710;19;20015;-80
2022/07/25 04:39:57;;;;;;;12.20;6.50;;;;;;;20.18;100.00;100947.81;7375474;19;20003;-77
2022/07/25 04:42:27;;;;;;;11.88;6.47;;;;;;;20.24;100.00;100941.47;7374847;19;20011;-76
2022/07/25 04:44:57;;;;;;;13.20;6.18;;;;;;;20.26;100.00;100934.31;7373949;19;20044;-77
2022/07/25 04:47:27;;;;;;;12.02;6.57;;;;;;;20.27;100.00;100941.38;7373509;19;20492;-76
2022/07/25 04:49:57;;;;;;;10.75;5.80;;;;;;;20.26;100.00;100942.31;7376787;19;20054;-76
2022/07/25 04:52:30;;;;;;;11.52;5.40;;;;;;;20.30;100.00;100941.31;7369736;19;20010;-78
2022/07/25 04:55:00;;;;;;;10.75;5.20;;;;;;;20.30;100.00;100946.63;7374023;19;20036;-76
2022/07/25 04:57:31;;;;;;;9.63;4.97;;;;;;;20.31;100.00;100940.41;7374416;19;20020;-76
2022/07/25 05:00:03;;;;;;;9.70;5.60;;;;;;;20.32;100.00;100934.16;7376001;19;20010;-77
2022/07/25 05:02:33;;;;;;;11.45;5.47;;;;;;;20.30;100.00;100937.78;7377755;19;20074;-77
2022/07/25 05:05:03;;;;;;;9.40;5.07;;;;;;;20.34;100.00;100942.09;7373975;19;20014;-77
2022/07/25 05:07:39;;;;;;;10.23;5.25;;;;;;;20.40;100.00;100944.66;7376305;19;20007;-77
2022/07/25 05:10:12;;;;;;;7.28;4.20;;;;;;;20.41;100.00;100947.28;7376171;19;20036;-76
2022/07/25 05:12:42;;;;;;;9.77;4.45;;;;;;;20.44;100.00;100949.00;7376386;19;20906;-76
2022/07/25 05:15:13;;;;;;;8.07;3.80;;;;;;;20.45;100.00;100946.28;7376874;19;20006;-76
2022/07/25 05:17:44;;;;;;;9.73;4.00;;;;;;;20.52;100.00;100941.66;7374351;19;20014;-79
2022/07/25 05:20:14;;;;;;;6.88;3.97;;;;;;;20.58;100.00;100951.28;7377816;19;20010;-77
2022/07/25 05:22:47;;;;;;;9.05;4.13;;;;;;;20.62;100.00;100956.50;7375429;19;20011;-77
2022/07/25 05:25:17;;;;;;;8.25;3.95;;;;;;;20.71;100.00;100960.72;7374222;19;20044;-81
2022/07/25 05:27:47;;;;;;;6.20;3.42;;;;;;;20.76;100.00;100959.69;7373800;19;20345;-80
2022/07/25 05:30:17;;;;;;;8.00;3.85;;;;;;;20.85;100.00;100954.06;7375988;19;20018;-81
2022/07/25 05:32:48;;;;;;;8.00;3.50;;;;;;;20.95;100.00;100954.69;7374376;19;20058;-79
2022/07/25 05:35:18;;;;;;;9.77;3.33;;;;;;;20.96;100.00;100952.91;7375659;19;20011;-83
2022/07/25 05:37:52;;;;;;;7.35;3.17;;;;;;;21.16;100.00;100951.44;7375404;19;20029;-81
2022/07/25 05:40:23;;;;;;;5.63;3.30;;;;;;;21.24;100.00;100953.03;7375439;19;20010;-80
2022/07/25 05:42:53;;;;;;;6.15;2.80;;;;;;;21.40;100.00;100955.22;7375250;19;20011;-77
2022/07/25 05:45:31;;;;;;;9.02;3.75;;;;;;;21.54;100.00;100950.34;7374747;19;20057;-77
2022/07/25 05:48:01;;;;;;;7.53;3.28;;;;;;;21.50;100.00;100967.34;7377175;19;20044;-81
2022/07/25 05:50:31;;;;;;;10.68;3.90;;;;;;;21.51;100.00;100969.09;7378971;19;20011;-76
2022/07/25 05:53:04;;;;;;;9.73;4.28;;;;;;;21.54;100.00;100961.00;7364966;19;20007;-77
2022/07/25 05:55:34;;;;;;;9.57;3.20;;;;;;;21.48;100.00;100963.00;7372566;19;20660;-76
2022/07/25 05:58:10;;;;;;;6.53;3.33;;;;;;;21.51;100.00;100969.09;7374281;19;20010;-77
2022/07/25 06:00:40;;;;;;;10.48;3.22;;;;;;;21.51;100.00;100962.91;7372501;19;20011;-76
2022/07/25 06:03:10;;;;;;;10.32;3.75;;;;;;;21.56;100.00;100966.31;7374452;19;20011;-77
2022/07/25 06:05:41;;;;;;;8.80;3.65;;;;;;;21.49;100.00;100941.59;7373170;19;20010;-77
2022/07/25 06:08:14;;;;;;;9.10;4.05;;;;;;;21.35;100.00;100962.47;7371967;19;20990;-77
2022/07/25 06:10:44;;;;;;;10.25;3.30;;;;;;;21.36;100.00;100969.56;7372368;19;20014;-76
2022/07/25 06:13:15;;;;;;;5.53;3.10;;;;;;;21.33;100.00;100966.97;7373626;19;20228;-78
2022/07/25 06:15:48;;;;;;;9.07;3.25;;;;;;;21.24;100.00;100947.69;7376940;19;20917;-80
2022/07/25 06:18:19;;;;;;;9.30;3.78;;;;;;;21.37;100.00;100949.97;7374940;19;20007;-79
2022/07/25 06:20:55;;;;;;;7.35;3.38;;;;;;;21.36;100.00;100958.88;7375428;19;20007;-79
2022/07/25 06:23:27;;;;;;;8.70;3.30;;;;;;;21.35;100.00;100961.59;7374853;19;20011;-79
2022/07/25 06:25:57;;;;;;;11.23;4.65;;;;;;;21.16;100.00;100963.88;7376914;19;20040;-79
2022/07/25 06:28:27;;;;;;;13.23;3.55;;;;;;;21.20;100.00;100968.22;7374543;19;20086;-78
2022/07/25 06:30:58;;;;;;;8.85;3.63;;;;;;;21.26;100.00;100957.41;7375138;19;20040;-77
2022/07/25 06:33:28;;;;;;;8.15;3.05;;;;;;;21.26;100.00;100956.53;7371884;19;20272;-80
2022/07/25 06:35:58;;;;;;;11.23;3.20;;;;;;;21.19;100.00;100964.69;7374106;19;19999;-81
2022/07/25 06:38:31;;;;;;;10.07;3.28;;;;;;;21.24;100.00;100961.91;7374541;19;20021;-80
2022/07/25 06:41:01;;;;;;;7.68;3.33;;;;;;;21.24;100.00;100963.69;7374922;19;20010;-80
2022/07/25 06:43:32;;;;;;;10.88;3.35;;;;;;;21.30;100.00;100964.41;7373392;19;20014;-76
2022/07/25 06:46:02;;;;;;;12.18;4.32;;;;;;;21.30;100.00;100964.41;7373218;19;20075;-76
2022/07/25 06:48:32;;;;;;;15.70;3.50;;;;;;;21.31;100.00;100965.28;7375578;19;20017;-77
2022/07/25 06:51:02;;;;;;;12.82;3.97;;;;;;;21.39;100.00;100953.47;7372676;19;20011;-77
2022/07/25 06:53:36;;;;;;;10.27;3.50;;;;;;;21.46;100.00;100965.69;7369161;19;20509;-77
2022/07/25 06:56:07;;;;;;;11.77;3.10;;;;;;;21.40;100.00;100973.00;7373739;19;20014;-78
2022/07/25 06:58:37;;;;;;;8.48;3.30;;;;;;;21.50;100.00;100959.34;7373105;19;20464;-77
2022/07/25 07:01:07;;;;;;;9.27;3.30;;;;;;;21.48;100.00;100971.00;7370265;19;21172;-75
2022/07/25 07:03:38;;;;;;;9.25;3.10;;;;;;;21.51;100.00;100968.22;7366623;19;20014;-76
2022/07/25 07:06:10;;;;;;;8.07;3.13;;;;;;;21.49;100.00;100967.41;7369447;19;20044;-77
2022/07/25 07:08:43;;;;;;;10.75;3.55;;;;;;;21.45;100.00;100974.63;7373007;19;20376;-77
2022/07/25 07:11:17;;;;;;;10.73;3.58;;;;;;;21.26;100.00;100977.88;7372173;19;20361;-78
2022/07/25 07:13:50;;;;;;;9.38;3.47;;;;;;;21.26;100.00;100978.75;7374589;19;20030;-80
2022/07/25 07:16:20;;;;;;;10.00;3.72;;;;;;;21.17;100.00;100984.31;7376746;19;20468;-80
2022/07/25 07:18:50;;;;;;;9.15;3.55;;;;;;;21.20;100.00;100979.75;7378817;19;20071;-81
2022/07/25 07:21:20;;;;;;;8.20;3.22;;;;;;;21.27;100.00;100983.16;7374216;19;20007;-78
2022/07/25 07:23:53;;;;;;;12.15;3.50;;;;;;;21.17;100.00;100985.19;7372832;19;20023;-78
2022/07/25 07:26:25;;;;;;;10.95;3.65;;;;;;;21.28;100.00;100979.56;7375643;19;20466;-80
2022/07/25 07:29:05;;;;;;;10.45;3.13;;;;;;;21.36;100.00;100995.38;7375403;19;20014;-82
2022/07/25 07:31:36;;;;;;;8.63;3.25;;;;;;;21.33;100.00;100979.44;7375253;19;20041;-79
2022/07/25 07:34:06;;;;;;;10.27;3.30;;;;;;;21.42;100.00;100989.84;7375451;19;20078;-80
2022/07/25 07:36:36;;;;;;;12.18;3.35;;;;;;;21.43;100.00;100986.25;7378200;19;20048;-81
2022/07/25 07:39:09;;;;;;;11.63;3.60;;;;;;;21.42;100.00;100985.38;7374887;19;20011;-79
2022/07/25 07:41:39;;;;;;;10.32;3.35;;;;;;;21.52;100.00;100991.34;7375391;19;20029;-80
2022/07/25 07:44:09;;;;;;;10.63;3.70;;;;;;;21.72;100.00;100983.59;7373624;19;20040;-78
2022/07/25 07:46:39;;;;;;;8.68;3.40;;;;;;;21.21;100.00;100980.63;7373790;19;20066;-78
2022/07/25 07:49:09;;;;;;;8.90;3.50;;;;;;;21.54;100.00;100979.69;7376102;19;20040;-79
2022/07/25 07:51:40;;;;;;;10.90;4.40;;;;;;;21.96;100.00;100983.75;7372701;19;20018;-79
2022/07/25 07:57:05;;;;;;;13.68;3.75;;;;;;;21.82;100.00;100984.19;7380673;19;21090;-79
2022/07/25 07:59:41;;;;;;;8.53;3.33;;;;;;;22.16;100.00;100990.22;7378458;19;20010;-80
2022/07/25 08:02:20;;;;;;;12.07;3.30;;;;;;;21.96;100.00;100989.06;7379590;19;20006;-79
2022/07/25 08:04:52;;;;;;;;;;;;;;;22.13;100.00;100984.13;7385405;19;20059;-79
2022/07/25 08:07:25;;;;;;;7.97;2.95;;;;;;;22.17;100.00;100975.94;7383972;19;19987;-79
2022/07/25 08:10:00;;;;;;;6.97;2.90;;;;;;;22.20;100.00;100969.63;7386496;19;20022;-84
2022/07/25 08:12:30;;;;;;;10.15;3.17;;;;;;;22.32;100.00;100961.22;7386158;19;20019;-81
2022/07/25 08:15:02;;;;;;;9.75;3.33;;;;;;;22.54;100.00;100965.84;7390297;19;20010;-81
2022/07/25 08:17:32;;;;;;;11.23;3.22;;;;;;;22.48;100.00;100967.78;7381535;19;20010;-77
2022/07/25 08:20:06;;;;;;;9.18;3.13;;;;;;;23.02;98.46;100972.16;7384117;19;20006;-80
2022/07/25 08:22:56;;;;;;;8.38;3.45;;;;;;;23.82;95.34;100966.50;7380898;19;20825;-78
2022/07/25 08:25:29;;;;;;;10.68;3.13;;;;;;;24.19;91.38;100971.22;7384199;19;20109;-78
2022/07/25 08:27:59;;;;;;;10.35;3.30;;;;;;;24.14;92.34;100982.13;7382751;19;20018;-79
2022/07/25 08:30:29;;;;;;;11.60;3.70;;;;;;;23.99;91.92;100985.44;7382723;19;20042;-77
2022/07/25 08:33:05;;;;;;;9.80;3.30;;;;;;;23.82;89.37;100995.97;7380758;19;20011;-79
2022/07/25 08:35:37;;;;;;;11.38;3.20;;;;;;;23.95;90.14;100992.72;7382811;19;20655;-81
2022/07/25 08:38:10;;;;;;;11.25;3.05;;;;;;;23.78;88.56;100987.19;7383806;19;20021;-80
2022/07/25 08:40:43;;;;;;;7.80;3.07;;;;;;;24.12;89.09;100994.72;7386909;19;20013;-80
2022/07/25 08:43:15;;;;;;;7.45;2.83;;;;;;;24.92;85.64;100993.16;7384755;19;20326;-78
2022/07/25 08:45:47;;;;;;;9.05;2.80;;;;;;;25.62;78.59;100979.22;7382784;19;20021;-77
2022/07/25 08:48:20;;;;;;;8.88;3.03;;;;;;;25.94;75.54;100985.81;7380474;19;20011;-84
2022/07/25 08:50:51;;;;;;;;;;;;;;;26.01;71.47;100970.22;7380329;19;20010;-77
2022/07/25 08:53:28;;;;;;;7.88;2.85;;;;;;;25.79;75.83;100982.97;7375704;19;19950;-81
2022/07/25 08:56:10;;;;;;;6.35;2.80;;;;;;;24.83;74.91;100990.00;7381442;19;20014;-81
2022/07/25 08:58:49;;;;;;;6.32;2.65;;;;;;;24.89;76.42;100981.69;7376259;19;20022;-79
2022/07/25 09:01:20;;;;;;;10.65;3.08;;;;;;;24.58;78.40;100968.72;7379718;19;20011;-80
2022/07/25 09:03:55;;;;;;;9.18;3.00;;;;;;;24.66;80.03;100982.69;7374165;19;20027;-79
2022/07/25 09:06:25;;;;;;;7.72;2.70;;;;;;;24.29;80.42;100983.34;7365581;19;20010;-80
2022/07/25 09:08:58;;;;;;;11.48;3.50;;;;;;;24.21;82.21;100989.00;7375787;19;20083;-82
2022/07/25 09:11:37;;;;;;;9.25;3.17;;;;;;;24.12;82.43;100994.72;7370350;19;20451;-84
2022/07/25 09:14:09;;;;;;;11.80;3.80;;;;;;;23.86;84.21;100982.41;7382233;19;20019;-80
2022/07/25 09:16:49;;;;;;;9.38;3.58;;;;;;;23.65;83.67;100992.13;7382231;19;20682;-79
2022/07/25 09:19:21;;;;;;;11.77;3.42;;;;;;;23.78;84.26;101011.28;7382559;19;20018;-83
2022/07/25 09:22:06;;;;;;;11.73;3.63;;;;;;;23.74;85.06;101009.66;7382984;19;20017;-80
2022/07/25 09:24:46;;;;;;;13.90;3.75;;;;;;;23.58;85.92;101022.75;7377872;19;20082;-83
2022/07/25 09:27:21;;;;;;;8.63;3.20;;;;;;;23.19;86.89;101016.16;7372744;19;20010;-83
2022/07/25 09:29:52;;;;;;;9.45;3.50;;;;;;;23.05;88.32;101020.19;7376781;19;20024;-83
2022/07/25 09:32:24;;;;;;;12.07;4.20;;;;;;;23.43;85.91;101032.19;7376307;19;20010;-80
2022/07/25 09:34:54;;;;;;;11.82;4.00;;;;;;;23.96;85.10;101025.72;7372559;19;20010;-80
2022/07/25 09:37:29;;;;;;;14.05;4.07;;;;;;;24.28;81.39;101022.69;7373460;19;20019;-79
2022/07/25 09:39:59;;;;;;;12.07;3.88;;;;;;;24.22;82.18;101030.06;7373043;19;20010;-80
2022/07/25 09:42:35;;;;;;;10.20;3.45;;;;;;;23.82;82.91;101036.13;7367905;19;20110;-79
2022/07/25 09:45:11;;;;;;;20.45;4.43;;;;;;;23.26;85.90;101036.41;7373870;19;20010;-80
2022/07/25 09:47:53;;;;;;;14.63;4.35;;;;;;;23.89;85.06;101032.28;7371285;19;20033;-77
2022/07/25 09:50:24;;;;;;;11.27;4.43;;;;;;;24.12;84.18;101032.22;7374027;19;20018;-79
2022/07/25 09:52:57;;;;;;;12.10;4.20;;;;;;;24.77;79.42;101028.69;7372203;19;20006;-80
2022/07/25 09:55:29;;;;;;;12.82;3.92;;;;;;;25.66;73.90;101018.47;7371831;19;20330;-79
2022/07/25 09:58:02;;;;;;;11.48;3.58;;;;;;;25.05;75.26;101039.13;7372068;19;20024;-79
2022/07/25 10:00:33;;;;;;;12.73;4.38;;;;;;;24.54;76.31;101045.75;7372010;19;20010;-80
2022/07/25 10:03:18;;;;;;;17.20;4.15;;;;;;;24.88;77.54;101050.56;7372563;19;20010;-80
2022/07/25 10:06:11;;;;;;;11.07;3.72;;;;;;;24.58;77.12;101046.50;7369023;19;20010;-79
2022/07/25 10:08:43;;;;;;;15.02;4.40;;;;;;;24.38;77.78;101055.34;7368656;19;20760;-79
2022/07/25 10:11:26;;;;;;;10.40;4.38;;;;;;;24.32;78.09;101053.78;7367593;19;20010;-79
2022/07/25 10:13:59;;;;;;;12.85;4.53;;;;;;;23.84;80.28;101059.25;7368527;19;20042;-79
2022/07/25 10:16:30;;;;;;;14.32;4.15;;;;;;;24.29;79.88;101056.59;7371554;19;20011;-79
2022/07/25 10:19:06;;;;;;;19.88;5.32;;;;;;;23.99;81.52;101066.66;7367940;19;20018;-79
2022/07/25 10:21:36;;;;;;;14.07;5.13;;;;;;;23.27;85.86;101057.75;7371815;19;20400;-79
2022/07/25 10:24:09;;;;;;;13.02;4.32;;;;;;;23.30;82.34;101062.13;7369368;19;20007;-80
2022/07/25 10:26:53;;;;;;;18.27;4.97;;;;;;;23.39;81.03;101062.66;7374532;19;20018;-82
2022/07/25 10:29:40;;;;;;;14.07;4.60;;;;;;;23.49;81.51;101073.91;7373123;19;20052;-82
2022/07/25 10:32:14;;;;;;;12.20;4.72;;;;;;;23.55;81.22;101073.72;7374754;19;20002;-82
2022/07/25 10:34:54;;;;;;;10.35;4.35;;;;;;;23.23;78.59;101088.22;7375753;19;20011;-80
2022/07/25 10:37:31;;;;;;;14.95;4.55;;;;;;;23.17;78.11;101078.63;7372720;19;20003;-79
2022/07/25 10:40:02;;;;;;;15.07;4.35;;;;;;;23.29;80.31;101087.13;7375536;19;20460;-78
2022/07/25 10:42:37;;;;;;;16.58;4.68;;;;;;;23.33;82.08;101088.78;7378860;19;20006;-80
2022/07/25 10:45:18;;;;;;;11.52;4.45;;;;;;;23.60;82.61;101084.28;7372631;19;21000;-79
2022/07/25 10:47:56;;;;;;;17.75;5.13;;;;;;;23.39;84.56;101085.88;7371569;19;20054;-80
2022/07/25 10:50:26;;;;;;;15.00;5.50;;;;;;;23.18;85.80;101084.84;7368757;19;20010;-80
2022/07/25 10:53:17;;;;;;;16.88;4.57;;;;;;;23.75;83.76;101092.63;7363992;19;20459;-80
2022/07/25 10:55:48;;;;;;;15.63;4.75;;;;;;;23.74;83.60;101090.00;7368962;19;20003;-80
2022/07/25 10:58:51;;;;;;;15.90;4.82;;;;;;;23.61;81.78;101097.59;7367622;19;20014;-79
2022/07/25 11:01:29;;;;;;;17.65;4.60;;;;;;;23.33;83.83;101086.09;7371614;19;20006;-78
2022/07/25 11:04:04;;;;;;;12.10;4.38;;;;;;;23.45;82.48;101099.91;7370312;19;20010;-80
2022/07/25 11:06:39;;;;;;;15.13;4.90;;;;;;;23.35;82.44;101097.63;7376178;19;20471;-79
2022/07/25 11:09:17;;;;;;;15.65;5.47;;;;;;;23.48;81.66;101102.50;7367834;19;20022;-78
2022/07/25 11:11:56;;;;;;;16.17;3.78;;;;;;;23.39;82.74;101109.97;7371011;19;20467;-79
2022/07/25 11:14:30;;;;;;;13.07;3.80;;;;;;;23.54;83.97;101111.25;7371316;19;20136;-80
2022/07/25 11:17:17;;;;;;;10.90;4.70;;;;;;;23.20;84.26;101104.38;7371093;19;20088;-77
2022/07/25 11:19:59;;;;;;;13.85;4.32;;;;;;;23.16;79.19;101103.63;7367262;19;20022;-79
2022/07/25 11:22:30;;;;;;;13.40;3.88;;;;;;;23.27;74.24;101118.44;7367013;19;20042;-79
2022/07/25 11:25:02;;;;;;;10.10;3.38;;;;;;;23.23;72.06;101103.41;7369359;19;20011;-79
2022/07/25 11:27:35;;;;;;;10.95;3.65;;;;;;;23.56;72.09;101112.09;7368908;19;20031;-79
2022/07/25 11:30:10;;;;;;;11.13;3.85;;;;;;;23.43;71.80;101117.84;7372472;19;20019;-78
2022/07/25 11:32:46;;;;;;;15.68;3.70;;;;;;;23.84;71.48;101122.66;7377052;19;20010;-80
2022/07/25 11:35:18;;;;;;;14.32;3.85;;;;;;;23.54;69.85;101120.16;7378271;19;20010;-79
2022/07/25 11:37:51;;;;;;;10.25;3.58;;;;;;;23.51;69.99;101117.56;7381041;19;20479;-77
2022/07/25 11:40:25;;;;;;;12.32;4.15;;;;;;;24.20;68.34;101123.03;7384874;19;20027;-78